Stations météo

réclame
Mon MeteoGroup
Brocken, Allemagne (10453): Température de l'air & dewpoint: 12.08.2018 02:00:00 - 18.08.2018 02:00:00 (CEST)Brocken, Allemagne (10453): Température de l'air 5cm: 12.08.2018 02:00:00 - 18.08.2018 02:00:00 (CEST)Brocken, Allemagne (10453): Vitesse du vent & gusts: 12.08.2018 02:00:00 - 18.08.2018 02:00:00 (CEST)Brocken, Allemagne (10453): Direction du vent: 12.08.2018 02:00:00 - 18.08.2018 02:00:00 (CEST)Brocken, Allemagne (10453): visibility: 12.08.2018 02:00:00 - 18.08.2018 02:00:00 (CEST)Brocken, Allemagne (10453): Ensoleillement: 12.08.2018 02:00:00 - 18.08.2018 02:00:00 (CEST)
Date & Time tt [°C] td [°C] tt 5cm [°C] ff [km/h] ff [knt] fx [km/h] fx [knt] dd vv [km] sd [min]
18.08.2018 02:00:00 11,2 11,1 11,3 14 8 26 14 NNW - 0
18.08.2018 01:00:00 11,3 11,2 11,5 18 10 34 18 N - 0
18.08.2018 00:00:00 11,5 11,4 11,7 20 11 32 17 NNW - 0
17.08.2018 23:00:00 11,7 11,5 11,8 21 11 32 18 N - 0
17.08.2018 22:00:00 11,8 11,4 11,5 27 15 33 18 N 8 0
17.08.2018 21:00:00 11,9 11,5 11,7 24 13 42 23 N 14 0
17.08.2018 20:00:00 12,7 11,5 13,1 36 20 48 26 N 35 0
17.08.2018 19:00:00 14,0 11,5 15,0 37 20 50 27 NNW 40 39
17.08.2018 18:00:00 16,1 11,1 20,7 28 15 52 28 N 55 58
17.08.2018 17:00:00 17,8 10,8 23,9 27 14 42 23 NNW 50 43
17.08.2018 16:00:00 18,3 11,6 26,5 21 11 32 18 N 45 49
17.08.2018 15:00:00 17,3 11,3 26,3 22 12 36 20 N 25 55
17.08.2018 14:00:00 19,2 13,0 25,7 11 6 37 20 NNW 25 60
17.08.2018 13:00:00 16,7 12,4 23,9 23 13 37 20 NNW 18 57
17.08.2018 12:00:00 16,4 12,5 23,1 23 12 32 17 NNW 12 60
17.08.2018 11:00:00 16,8 12,5 21,1 22 12 31 17 NNW 20 60
17.08.2018 10:00:00 17,3 11,1 19,1 15 8 27 15 N 30 60
17.08.2018 09:00:00 19,1 9,7 19,7 13 7 22 12 S 30 60
17.08.2018 08:00:00 17,9 9,0 17,0 17 9 27 15 S 40 57
17.08.2018 07:00:00 17,5 8,8 13,9 19 11 24 13 S 40 14
17.08.2018 06:00:00 17,7 8,6 13,7 19 10 23 12 S 40 0
17.08.2018 05:00:00 17,5 9,1 13,5 13 7 18 10 ESE 82 0
17.08.2018 04:00:00 17,0 9,2 11,1 11 6 14 7 E 82 0
17.08.2018 03:00:00 17,1 9,8 7,7 10 5 16 8 NE 82 0
17.08.2018 02:00:00 17,1 9,6 10,8 12 6 14 8 E 80 0
17.08.2018 01:00:00 17,2 10,0 8,9 9 5 11 6 E 80 0
17.08.2018 00:00:00 17,5 10,0 9,5 7 4 10 5 E 80 0
16.08.2018 23:00:00 17,5 10,1 8,7 8 4 12 6 NNE 80 0
16.08.2018 22:00:00 18,5 9,9 9,6 4 2 9 5 SW 80 0
16.08.2018 21:00:00 18,9 9,9 10,1 8 5 16 9 SW 80 30
16.08.2018 20:00:00 19,2 9,7 17,2 13 7 21 11 SSW 80 60
16.08.2018 19:00:00 19,6 9,2 20,1 19 10 30 16 SSW 80 60
16.08.2018 18:00:00 20,2 9,4 23,7 22 12 34 18 SSW 60 60
16.08.2018 17:00:00 20,1 9,3 24,5 21 11 38 20 SW 60 60
16.08.2018 16:00:00 20,0 9,5 24,8 26 14 37 20 SSW 60 60
16.08.2018 15:00:00 19,5 9,7 25,3 21 12 37 20 S 60 60
16.08.2018 14:00:00 19,3 10,2 25,6 22 12 37 20 S 50 60
16.08.2018 13:00:00 16,9 9,6 22,4 29 16 36 20 SSW 50 60
16.08.2018 12:00:00 16,8 9,5 21,1 27 15 40 22 S 40 60
16.08.2018 11:00:00 15,1 9,6 18,7 31 17 42 23 S 30 60
16.08.2018 10:00:00 13,6 8,7 14,8 33 18 44 24 SSW 30 60
16.08.2018 09:00:00 13,1 8,6 14,1 27 15 35 19 S 35 60
16.08.2018 08:00:00 11,8 8,7 11,6 22 12 32 17 S 40 60
16.08.2018 07:00:00 11,2 8,7 9,3 27 15 31 17 S 45 15
16.08.2018 06:00:00 11,2 8,3 8,4 27 14 31 17 SSW 60 0
16.08.2018 05:00:00 11,2 8,4 8,6 26 14 29 16 S 70 0
16.08.2018 04:00:00 11,7 9,0 9,0 20 11 22 12 SSW 70 0
16.08.2018 03:00:00 12,0 9,2 8,5 15 8 17 9 SW 70 0
16.08.2018 02:00:00 12,3 9,3 6,7 10 6 12 6 SW 80 0
16.08.2018 01:00:00 12,3 8,7 5,8 9 5 12 6 WSW 82 0
16.08.2018 00:00:00 11,9 9,1 5,0 8 4 12 6 WSW 82 0
15.08.2018 23:00:00 11,3 8,9 5,1 9 5 11 6 W 82 0
15.08.2018 22:00:00 11,8 8,3 6,5 12 7 16 8 W 80 0
15.08.2018 21:00:00 11,9 9,3 8,2 10 6 14 7 W 50 1
15.08.2018 20:00:00 13,0 9,7 13,4 10 5 16 8 SW 50 9
15.08.2018 19:00:00 13,6 9,1 14,1 14 7 21 11 WSW 50 2
15.08.2018 18:00:00 13,0 9,6 14,9 15 8 26 14 WSW 40 0
15.08.2018 17:00:00 14,0 9,6 15,5 20 11 28 15 WSW 60 9
15.08.2018 16:00:00 14,7 7,9 20,1 22 12 34 19 W 60 45
15.08.2018 15:00:00 14,6 9,4 16,2 23 12 31 17 WSW 55 25
15.08.2018 14:00:00 12,6 9,1 15,2 22 12 30 16 W 40 6
15.08.2018 13:00:00 10,9 9,7 12,5 24 13 32 17 W 15 0
15.08.2018 12:00:00 10,6 9,8 13,3 25 13 45 24 WSW 4,0 5
15.08.2018 11:00:00 9,9 9,8 10,4 28 15 50 27 WSW - 0
15.08.2018 10:00:00 9,4 9,1 10,8 33 18 47 26 WSW 1,0 8
15.08.2018 09:00:00 10,0 9,9 11,0 34 18 43 23 WSW - 0
15.08.2018 08:00:00 10,1 10,1 10,4 35 19 45 24 W - 0
15.08.2018 07:00:00 10,0 10,0 10,1 39 21 50 27 W - 0
15.08.2018 06:00:00 9,5 9,5 9,4 44 24 59 32 WNW 12 0
15.08.2018 05:00:00 8,7 8,5 8,5 48 26 56 30 W - 0
15.08.2018 04:00:00 8,9 8,8 8,9 49 27 59 32 W - 0
15.08.2018 03:00:00 9,4 9,4 9,4 49 27 58 32 WNW - 0
15.08.2018 02:00:00 9,3 9,3 9,3 48 26 58 32 WNW - 0
15.08.2018 01:00:00 9,3 9,3 9,1 46 25 58 31 WNW - 0
15.08.2018 00:00:00 9,5 9,4 9,3 45 25 56 30 WNW - 0
14.08.2018 23:00:00 10,0 9,9 10,0 44 24 57 31 W - 0
14.08.2018 22:00:00 10,3 10,2 10,2 42 23 54 29 W 12 0
14.08.2018 21:00:00 10,7 10,7 10,7 48 26 60 33 W - 0
14.08.2018 20:00:00 10,9 10,9 11,1 46 25 61 33 W - 0
14.08.2018 19:00:00 10,7 10,7 10,9 51 28 77 42 W - 0
14.08.2018 18:00:00 10,5 10,5 10,7 60 33 78 42 W - 0
14.08.2018 17:00:00 11,2 11,2 11,5 50 27 67 36 W - 2
14.08.2018 16:00:00 11,1 11,1 13,5 44 24 64 35 W 50 5
14.08.2018 15:00:00 11,4 11,4 12,1 47 26 68 37 W - 0
14.08.2018 14:00:00 11,4 11,4 12,2 53 29 76 41 WSW - 0
14.08.2018 13:00:00 11,1 11,1 11,7 56 31 76 41 WSW - 0
14.08.2018 12:00:00 11,0 11,0 11,8 49 26 67 36 WSW - 0
14.08.2018 11:00:00 10,5 10,5 10,9 51 27 69 38 WSW - 0
14.08.2018 10:00:00 10,4 10,4 10,7 47 25 66 36 WSW - 0
14.08.2018 09:00:00 10,0 10,0 10,2 50 27 68 37 WSW - 0
14.08.2018 08:00:00 9,6 9,6 9,9 59 32 77 42 WSW - 0
14.08.2018 07:00:00 9,9 9,9 10,1 53 29 72 39 WSW - 0
14.08.2018 06:00:00 9,7 9,7 9,7 56 30 72 39 WSW - 0
14.08.2018 05:00:00 9,6 9,6 9,6 53 29 69 37 WSW - 0
14.08.2018 04:00:00 10,0 10,0 10,0 56 31 74 40 WSW - 0
14.08.2018 03:00:00 10,3 10,2 10,3 50 27 64 35 WSW - 0
14.08.2018 02:00:00 10,1 10,1 10,2 49 26 65 35 WSW - 0
14.08.2018 01:00:00 10,3 10,3 10,2 53 29 64 34 WSW - 0
14.08.2018 00:00:00 10,4 10,4 10,5 53 28 62 34 WSW - 0
13.08.2018 23:00:00 10,6 10,5 10,3 46 25 53 29 WSW - 0
13.08.2018 22:00:00 10,9 10,8 10,8 47 25 56 30 WSW - 0
13.08.2018 21:00:00 11,5 10,7 11,0 50 27 62 33 SW 40 4
13.08.2018 20:00:00 12,9 12,0 12,8 40 22 56 30 SSW 45 0
13.08.2018 19:00:00 12,8 12,4 13,5 40 22 55 30 SSW 30 0
13.08.2018 18:00:00 12,7 12,1 13,3 39 21 61 33 SW 50 1
13.08.2018 17:00:00 13,1 11,5 13,8 48 26 75 41 SSW 70 15
13.08.2018 16:00:00 12,3 12,1 13,6 50 27 67 36 SSW 0,1 0
13.08.2018 15:00:00 12,8 11,2 13,7 40 22 54 29 SW 60 0
13.08.2018 14:00:00 12,7 11,0 13,0 45 25 63 34 SSW 40 0
13.08.2018 13:00:00 14,4 9,3 15,9 49 26 67 36 SSW 60 0
13.08.2018 12:00:00 14,7 6,9 16,2 51 28 74 40 SW 82 21
13.08.2018 11:00:00 17,2 5,6 18,9 41 22 50 27 SSW 82 26
13.08.2018 10:00:00 17,4 5,0 19,2 35 19 49 26 SSW 82 56
13.08.2018 09:00:00 16,3 4,7 17,2 31 17 37 20 SSW 82 57
13.08.2018 08:00:00 15,4 4,3 15,8 28 15 34 18 SSW 82 60
13.08.2018 07:00:00 15,0 3,9 12,4 26 14 29 16 SW 82 43
13.08.2018 06:00:00 15,1 3,5 11,8 24 13 29 16 SW 82 0
13.08.2018 05:00:00 15,2 3,4 12,0 29 15 35 19 SW 82 0
13.08.2018 04:00:00 15,2 3,9 12,3 32 17 36 20 SW 82 0
13.08.2018 03:00:00 15,3 3,1 12,8 34 18 39 21 SW 82 0
13.08.2018 02:00:00 15,6 2,1 13,2 38 21 42 23 SW 82 0
13.08.2018 01:00:00 15,7 0,8 13,5 39 21 42 23 SW 82 0
13.08.2018 00:00:00 16,0 -0,1 13,8 35 19 40 21 SW 82 0
12.08.2018 23:00:00 16,1 -1,0 12,4 27 15 31 17 SW 82 0
12.08.2018 22:00:00 15,9 0,1 12,7 22 12 27 15 SW 82 0
12.08.2018 21:00:00 16,1 0,4 12,2 16 9 23 12 SSW 82 0
12.08.2018 20:00:00 16,5 0,0 14,1 13 7 28 15 SSW 82 43
12.08.2018 19:00:00 17,1 -1,9 18,1 21 11 33 18 SSW 82 59
12.08.2018 18:00:00 17,8 -0,9 20,7 13 7 32 17 S 82 60
12.08.2018 17:00:00 17,2 -2,1 22,2 21 11 35 19 SW 82 60
12.08.2018 16:00:00 17,2 -0,1 22,4 24 13 34 18 SSW 82 60
12.08.2018 15:00:00 17,9 1,7 20,9 13 7 37 20 SW 82 60
12.08.2018 14:00:00 15,8 1,0 22,0 18 10 45 24 SSW 82 60
12.08.2018 13:00:00 15,5 3,1 21,8 22 12 41 22 SW 82 60
12.08.2018 12:00:00 12,7 2,3 18,4 29 16 44 24 SW 82 60
12.08.2018 11:00:00 12,4 3,8 15,8 29 16 44 24 SSW 82 60
12.08.2018 10:00:00 10,9 3,2 12,8 36 19 45 24 SW 82 60
12.08.2018 09:00:00 10,0 3,0 12,6 30 16 41 22 SSW 82 60
12.08.2018 08:00:00 9,2 2,9 9,6 34 18 41 22 SW 82 60
12.08.2018 07:00:00 8,6 2,8 7,3 34 18 37 20 SW 82 30
12.08.2018 06:00:00 8,5 2,7 6,4 35 19 38 21 SW 80 0
12.08.2018 05:00:00 8,7 2,7 6,7 35 19 38 20 SW 82 0
12.08.2018 04:00:00 8,7 2,7 6,4 31 17 34 18 WSW 82 0
12.08.2018 03:00:00 8,1 3,3 6,1 25 14 33 18 W 82 0
12.08.2018 02:00:00 8,3 3,1 5,8 29 16 34 18 W 82 0

tt = Température de l'air
td = dewpoint
tt 5cm = Température de l'air 5cm
ff = Vitesse du vent
fx = gusts
dd = Direction du vent
vv = visibility
sd = Ensoleillement

stations d'obs. à proximité